sensor_id;sensor_type;location;lat;lon;timestamp;P1;durP1;ratioP1;P2;durP2;ratioP2
64313;SDS011;50650;48.180;11.524;2023-02-28T00:00:08;4.78;;;2.10;;
64313;SDS011;50650;48.180;11.524;2023-02-28T00:02:36;5.43;;;1.70;;
64313;SDS011;50650;48.180;11.524;2023-02-28T00:05:03;2.85;;;1.80;;
64313;SDS011;50650;48.180;11.524;2023-02-28T00:07:30;3.88;;;1.70;;
64313;SDS011;50650;48.180;11.524;2023-02-28T00:10:04;3.78;;;1.85;;
64313;SDS011;50650;48.180;11.524;2023-02-28T00:12:32;3.30;;;1.75;;
64313;SDS011;50650;48.180;11.524;2023-02-28T00:14:59;6.28;;;2.10;;
64313;SDS011;50650;48.180;11.524;2023-02-28T00:17:25;2.88;;;1.52;;
64313;SDS011;50650;48.180;11.524;2023-02-28T00:19:52;3.08;;;1.70;;
64313;SDS011;50650;48.180;11.524;2023-02-28T00:22:19;2.95;;;1.63;;
64313;SDS011;50650;48.180;11.524;2023-02-28T00:24:46;4.00;;;1.98;;
64313;SDS011;50650;48.180;11.524;2023-02-28T00:27:14;2.90;;;1.45;;
64313;SDS011;50650;48.180;11.524;2023-02-28T00:29:41;3.38;;;1.80;;
64313;SDS011;50650;48.180;11.524;2023-02-28T00:32:07;4.30;;;1.70;;
64313;SDS011;50650;48.180;11.524;2023-02-28T00:34:34;4.60;;;1.83;;
64313;SDS011;50650;48.180;11.524;2023-02-28T00:37:02;2.95;;;1.80;;
64313;SDS011;50650;48.180;11.524;2023-02-28T00:39:30;3.72;;;1.67;;
64313;SDS011;50650;48.180;11.524;2023-02-28T00:41:57;2.60;;;1.80;;
64313;SDS011;50650;48.180;11.524;2023-02-28T00:44:24;2.90;;;2.10;;
64313;SDS011;50650;48.180;11.524;2023-02-28T00:46:51;3.85;;;2.20;;
64313;SDS011;50650;48.180;11.524;2023-02-28T00:49:19;3.47;;;1.85;;
64313;SDS011;50650;48.180;11.524;2023-02-28T00:51:45;3.33;;;1.75;;
64313;SDS011;50650;48.180;11.524;2023-02-28T00:54:12;3.15;;;2.03;;
64313;SDS011;50650;48.180;11.524;2023-02-28T00:56:38;7.90;;;2.13;;
64313;SDS011;50650;48.180;11.524;2023-02-28T00:59:05;3.95;;;2.20;;
64313;SDS011;50650;48.180;11.524;2023-02-28T01:01:33;5.68;;;2.13;;
64313;SDS011;50650;48.180;11.524;2023-02-28T01:03:59;4.65;;;2.03;;
64313;SDS011;50650;48.180;11.524;2023-02-28T01:06:26;3.42;;;1.55;;
64313;SDS011;50650;48.180;11.524;2023-02-28T01:08:52;3.10;;;2.10;;
64313;SDS011;50650;48.180;11.524;2023-02-28T01:11:18;2.55;;;1.67;;
64313;SDS011;50650;48.180;11.524;2023-02-28T01:13:45;2.88;;;1.73;;
64313;SDS011;50650;48.180;11.524;2023-02-28T01:16:12;3.17;;;2.13;;
64313;SDS011;50650;48.180;11.524;2023-02-28T01:18:40;3.65;;;1.83;;
64313;SDS011;50650;48.180;11.524;2023-02-28T01:21:08;4.65;;;1.90;;
64313;SDS011;50650;48.180;11.524;2023-02-28T01:23:36;4.57;;;2.03;;
64313;SDS011;50650;48.180;11.524;2023-02-28T01:26:05;2.42;;;1.70;;
64313;SDS011;50650;48.180;11.524;2023-02-28T01:28:32;6.03;;;2.70;;
64313;SDS011;50650;48.180;11.524;2023-02-28T01:30:59;4.38;;;1.90;;
64313;SDS011;50650;48.180;11.524;2023-02-28T01:33:25;3.85;;;1.65;;
64313;SDS011;50650;48.180;11.524;2023-02-28T01:35:58;3.45;;;2.17;;
64313;SDS011;50650;48.180;11.524;2023-02-28T01:38:24;3.97;;;2.30;;
64313;SDS011;50650;48.180;11.524;2023-02-28T01:40:51;4.05;;;1.90;;
64313;SDS011;50650;48.180;11.524;2023-02-28T01:43:20;3.10;;;1.90;;
64313;SDS011;50650;48.180;11.524;2023-02-28T01:45:48;5.00;;;2.55;;
64313;SDS011;50650;48.180;11.524;2023-02-28T01:48:15;2.80;;;1.58;;
64313;SDS011;50650;48.180;11.524;2023-02-28T01:50:43;4.40;;;2.30;;
64313;SDS011;50650;48.180;11.524;2023-02-28T01:53:13;3.10;;;1.80;;
64313;SDS011;50650;48.180;11.524;2023-02-28T01:55:41;3.42;;;2.13;;
64313;SDS011;50650;48.180;11.524;2023-02-28T01:58:10;4.53;;;2.22;;
64313;SDS011;50650;48.180;11.524;2023-02-28T02:00:37;3.13;;;1.90;;
64313;SDS011;50650;48.180;11.524;2023-02-28T02:03:06;3.95;;;2.20;;
64313;SDS011;50650;48.180;11.524;2023-02-28T02:05:34;5.13;;;2.30;;
64313;SDS011;50650;48.180;11.524;2023-02-28T02:08:03;3.72;;;2.08;;
64313;SDS011;50650;48.180;11.524;2023-02-28T02:10:33;3.35;;;1.88;;
64313;SDS011;50650;48.180;11.524;2023-02-28T02:13:09;6.90;;;2.30;;
64313;SDS011;50650;48.180;11.524;2023-02-28T02:15:56;4.55;;;2.35;;
64313;SDS011;50650;48.180;11.524;2023-02-28T02:18:30;3.92;;;1.98;;
64313;SDS011;50650;48.180;11.524;2023-02-28T02:21:18;3.03;;;2.10;;
64313;SDS011;50650;48.180;11.524;2023-02-28T02:24:19;4.82;;;2.40;;
64313;SDS011;50650;48.180;11.524;2023-02-28T02:27:08;3.30;;;1.75;;
64313;SDS011;50650;48.180;11.524;2023-02-28T02:32:47;5.63;;;2.20;;
64313;SDS011;50650;48.180;11.524;2023-02-28T02:35:19;5.55;;;1.98;;
64313;SDS011;50650;48.180;11.524;2023-02-28T02:37:48;7.85;;;1.85;;
64313;SDS011;50650;48.180;11.524;2023-02-28T02:40:17;3.13;;;1.48;;
64313;SDS011;50650;48.180;11.524;2023-02-28T02:42:48;2.83;;;1.75;;
64313;SDS011;50650;48.180;11.524;2023-02-28T02:45:18;2.10;;;1.70;;
64313;SDS011;50650;48.180;11.524;2023-02-28T02:47:48;3.95;;;1.70;;
64313;SDS011;50650;48.180;11.524;2023-02-28T02:50:16;5.65;;;2.17;;
64313;SDS011;50650;48.180;11.524;2023-02-28T02:52:48;13.45;;;2.28;;
64313;SDS011;50650;48.180;11.524;2023-02-28T02:55:17;4.03;;;2.13;;
64313;SDS011;50650;48.180;11.524;2023-02-28T02:57:45;4.65;;;2.33;;
64313;SDS011;50650;48.180;11.524;2023-02-28T03:02:41;5.35;;;2.38;;
64313;SDS011;50650;48.180;11.524;2023-02-28T03:05:12;3.15;;;2.08;;
64313;SDS011;50650;48.180;11.524;2023-02-28T03:07:44;6.40;;;2.35;;
64313;SDS011;50650;48.180;11.524;2023-02-28T03:10:27;2.63;;;1.92;;
64313;SDS011;50650;48.180;11.524;2023-02-28T03:13:00;5.28;;;2.35;;
64313;SDS011;50650;48.180;11.524;2023-02-28T03:15:32;4.45;;;2.45;;
64313;SDS011;50650;48.180;11.524;2023-02-28T03:18:03;3.78;;;2.25;;
64313;SDS011;50650;48.180;11.524;2023-02-28T03:20:38;6.68;;;2.50;;
64313;SDS011;50650;48.180;11.524;2023-02-28T03:23:10;6.75;;;2.22;;
64313;SDS011;50650;48.180;11.524;2023-02-28T03:25:44;6.15;;;2.35;;
64313;SDS011;50650;48.180;11.524;2023-02-28T03:28:18;7.10;;;2.05;;
64313;SDS011;50650;48.180;11.524;2023-02-28T03:30:49;4.65;;;2.05;;
64313;SDS011;50650;48.180;11.524;2023-02-28T03:33:19;7.22;;;2.45;;
64313;SDS011;50650;48.180;11.524;2023-02-28T03:35:50;4.40;;;2.35;;
64313;SDS011;50650;48.180;11.524;2023-02-28T03:38:21;4.78;;;2.70;;
64313;SDS011;50650;48.180;11.524;2023-02-28T03:40:49;4.75;;;3.10;;
64313;SDS011;50650;48.180;11.524;2023-02-28T03:43:22;7.53;;;3.40;;
64313;SDS011;50650;48.180;11.524;2023-02-28T03:45:50;5.38;;;2.65;;
64313;SDS011;50650;48.180;11.524;2023-02-28T03:48:19;4.43;;;2.40;;
64313;SDS011;50650;48.180;11.524;2023-02-28T03:50:48;6.30;;;2.90;;
64313;SDS011;50650;48.180;11.524;2023-02-28T03:53:22;11.98;;;2.55;;
64313;SDS011;50650;48.180;11.524;2023-02-28T03:55:53;4.65;;;2.53;;
64313;SDS011;50650;48.180;11.524;2023-02-28T03:58:29;5.30;;;2.70;;
64313;SDS011;50650;48.180;11.524;2023-02-28T04:00:59;6.03;;;2.95;;
64313;SDS011;50650;48.180;11.524;2023-02-28T04:05:59;3.50;;;2.33;;
64313;SDS011;50650;48.180;11.524;2023-02-28T04:08:27;6.95;;;3.05;;
64313;SDS011;50650;48.180;11.524;2023-02-28T04:10:57;6.35;;;2.88;;
64313;SDS011;50650;48.180;11.524;2023-02-28T04:13:26;8.18;;;3.03;;
64313;SDS011;50650;48.180;11.524;2023-02-28T04:15:53;7.10;;;2.97;;
64313;SDS011;50650;48.180;11.524;2023-02-28T04:18:19;5.30;;;3.22;;
64313;SDS011;50650;48.180;11.524;2023-02-28T04:20:45;5.65;;;3.28;;
64313;SDS011;50650;48.180;11.524;2023-02-28T04:23:12;5.30;;;3.10;;
64313;SDS011;50650;48.180;11.524;2023-02-28T04:25:40;5.65;;;3.13;;
64313;SDS011;50650;48.180;11.524;2023-02-28T04:28:06;7.90;;;3.78;;
64313;SDS011;50650;48.180;11.524;2023-02-28T04:30:33;5.80;;;3.17;;
64313;SDS011;50650;48.180;11.524;2023-02-28T04:33:00;5.82;;;3.38;;
64313;SDS011;50650;48.180;11.524;2023-02-28T04:35:26;5.57;;;3.05;;
64313;SDS011;50650;48.180;11.524;2023-02-28T04:37:52;7.13;;;3.47;;
64313;SDS011;50650;48.180;11.524;2023-02-28T04:40:19;6.40;;;3.58;;
64313;SDS011;50650;48.180;11.524;2023-02-28T04:42:47;6.75;;;3.58;;
64313;SDS011;50650;48.180;11.524;2023-02-28T04:45:13;7.80;;;3.15;;
64313;SDS011;50650;48.180;11.524;2023-02-28T04:47:40;7.30;;;3.47;;
64313;SDS011;50650;48.180;11.524;2023-02-28T04:50:09;7.47;;;3.72;;
64313;SDS011;50650;48.180;11.524;2023-02-28T04:52:35;6.82;;;3.67;;
64313;SDS011;50650;48.180;11.524;2023-02-28T04:55:02;7.28;;;3.50;;
64313;SDS011;50650;48.180;11.524;2023-02-28T04:57:29;6.85;;;3.70;;
64313;SDS011;50650;48.180;11.524;2023-02-28T04:59:57;5.93;;;3.60;;
64313;SDS011;50650;48.180;11.524;2023-02-28T05:02:23;6.35;;;2.90;;
64313;SDS011;50650;48.180;11.524;2023-02-28T05:04:50;5.82;;;3.97;;
64313;SDS011;50650;48.180;11.524;2023-02-28T05:07:16;8.95;;;3.90;;
64313;SDS011;50650;48.180;11.524;2023-02-28T05:09:43;8.13;;;3.75;;
64313;SDS011;50650;48.180;11.524;2023-02-28T05:12:09;10.93;;;4.15;;
64313;SDS011;50650;48.180;11.524;2023-02-28T05:14:35;6.65;;;3.97;;
64313;SDS011;50650;48.180;11.524;2023-02-28T05:17:03;5.97;;;3.63;;
64313;SDS011;50650;48.180;11.524;2023-02-28T05:19:30;5.93;;;3.55;;
64313;SDS011;50650;48.180;11.524;2023-02-28T05:21:56;8.38;;;4.28;;
64313;SDS011;50650;48.180;11.524;2023-02-28T05:24:23;7.35;;;3.80;;
64313;SDS011;50650;48.180;11.524;2023-02-28T05:26:50;7.30;;;4.00;;
64313;SDS011;50650;48.180;11.524;2023-02-28T05:29:17;6.20;;;4.18;;
64313;SDS011;50650;48.180;11.524;2023-02-28T05:31:44;12.90;;;4.80;;
64313;SDS011;50650;48.180;11.524;2023-02-28T05:34:12;9.05;;;4.35;;
64313;SDS011;50650;48.180;11.524;2023-02-28T05:36:40;7.78;;;4.28;;
64313;SDS011;50650;48.180;11.524;2023-02-28T05:39:07;6.25;;;3.80;;
64313;SDS011;50650;48.180;11.524;2023-02-28T05:41:37;6.68;;;4.07;;
64313;SDS011;50650;48.180;11.524;2023-02-28T05:44:04;11.45;;;4.97;;
64313;SDS011;50650;48.180;11.524;2023-02-28T05:46:31;9.75;;;4.43;;
64313;SDS011;50650;48.180;11.524;2023-02-28T05:48:57;8.82;;;4.60;;
64313;SDS011;50650;48.180;11.524;2023-02-28T05:51:27;8.30;;;4.53;;
64313;SDS011;50650;48.180;11.524;2023-02-28T05:53:53;11.50;;;4.85;;
64313;SDS011;50650;48.180;11.524;2023-02-28T05:56:20;8.85;;;5.20;;
64313;SDS011;50650;48.180;11.524;2023-02-28T05:58:46;9.18;;;5.07;;
64313;SDS011;50650;48.180;11.524;2023-02-28T06:01:21;11.98;;;5.60;;
64313;SDS011;50650;48.180;11.524;2023-02-28T06:03:50;10.60;;;5.68;;
64313;SDS011;50650;48.180;11.524;2023-02-28T06:06:17;9.95;;;5.95;;
64313;SDS011;50650;48.180;11.524;2023-02-28T06:08:45;9.18;;;5.60;;
64313;SDS011;50650;48.180;11.524;2023-02-28T06:11:11;8.52;;;5.65;;
64313;SDS011;50650;48.180;11.524;2023-02-28T06:13:38;9.15;;;5.57;;
64313;SDS011;50650;48.180;11.524;2023-02-28T06:16:04;9.88;;;5.47;;
64313;SDS011;50650;48.180;11.524;2023-02-28T06:18:32;10.13;;;5.97;;
64313;SDS011;50650;48.180;11.524;2023-02-28T06:20:58;11.40;;;5.78;;
64313;SDS011;50650;48.180;11.524;2023-02-28T06:23:27;9.35;;;5.55;;
64313;SDS011;50650;48.180;11.524;2023-02-28T06:25:55;8.52;;;5.13;;
64313;SDS011;50650;48.180;11.524;2023-02-28T06:28:23;9.88;;;6.03;;
64313;SDS011;50650;48.180;11.524;2023-02-28T06:30:50;10.43;;;6.13;;
64313;SDS011;50650;48.180;11.524;2023-02-28T06:33:16;14.27;;;6.00;;
64313;SDS011;50650;48.180;11.524;2023-02-28T06:35:43;11.98;;;7.20;;
64313;SDS011;50650;48.180;11.524;2023-02-28T06:38:10;9.95;;;5.65;;
64313;SDS011;50650;48.180;11.524;2023-02-28T06:40:36;18.40;;;6.15;;
64313;SDS011;50650;48.180;11.524;2023-02-28T06:43:04;11.45;;;6.40;;
64313;SDS011;50650;48.180;11.524;2023-02-28T06:45:30;12.02;;;7.00;;
64313;SDS011;50650;48.180;11.524;2023-02-28T06:47:57;12.20;;;6.65;;
64313;SDS011;50650;48.180;11.524;2023-02-28T06:50:25;10.70;;;6.50;;
64313;SDS011;50650;48.180;11.524;2023-02-28T06:52:53;9.93;;;4.93;;
64313;SDS011;50650;48.180;11.524;2023-02-28T06:55:22;11.57;;;6.13;;
64313;SDS011;50650;48.180;11.524;2023-02-28T06:58:06;12.75;;;5.72;;
64313;SDS011;50650;48.180;11.524;2023-02-28T07:00:39;10.93;;;6.38;;
64313;SDS011;50650;48.180;11.524;2023-02-28T07:03:06;10.13;;;5.63;;
64313;SDS011;50650;48.180;11.524;2023-02-28T07:05:34;11.07;;;6.20;;
64313;SDS011;50650;48.180;11.524;2023-02-28T07:08:00;10.57;;;5.90;;
64313;SDS011;50650;48.180;11.524;2023-02-28T07:10:28;11.32;;;6.30;;
64313;SDS011;50650;48.180;11.524;2023-02-28T07:12:54;10.57;;;6.68;;
64313;SDS011;50650;48.180;11.524;2023-02-28T07:15:22;13.70;;;7.55;;
64313;SDS011;50650;48.180;11.524;2023-02-28T07:17:48;12.60;;;6.38;;
64313;SDS011;50650;48.180;11.524;2023-02-28T07:20:15;11.85;;;7.65;;
64313;SDS011;50650;48.180;11.524;2023-02-28T07:22:42;10.93;;;6.22;;
64313;SDS011;50650;48.180;11.524;2023-02-28T07:25:09;12.10;;;6.93;;
64313;SDS011;50650;48.180;11.524;2023-02-28T07:27:36;11.88;;;7.07;;
64313;SDS011;50650;48.180;11.524;2023-02-28T07:30:03;12.13;;;7.40;;
64313;SDS011;50650;48.180;11.524;2023-02-28T07:32:31;11.30;;;7.20;;
64313;SDS011;50650;48.180;11.524;2023-02-28T07:34:58;14.02;;;7.50;;
64313;SDS011;50650;48.180;11.524;2023-02-28T07:37:24;13.93;;;7.43;;
64313;SDS011;50650;48.180;11.524;2023-02-28T07:39:50;15.82;;;7.38;;
64313;SDS011;50650;48.180;11.524;2023-02-28T07:42:17;12.70;;;6.93;;
64313;SDS011;50650;48.180;11.524;2023-02-28T07:44:43;15.73;;;7.20;;
64313;SDS011;50650;48.180;11.524;2023-02-28T07:47:10;13.27;;;7.72;;
64313;SDS011;50650;48.180;11.524;2023-02-28T07:49:38;13.00;;;7.40;;
64313;SDS011;50650;48.180;11.524;2023-02-28T07:52:05;11.35;;;6.97;;
64313;SDS011;50650;48.180;11.524;2023-02-28T07:54:32;15.70;;;7.78;;
64313;SDS011;50650;48.180;11.524;2023-02-28T07:56:58;10.35;;;6.82;;
64313;SDS011;50650;48.180;11.524;2023-02-28T07:59:25;19.27;;;7.95;;
64313;SDS011;50650;48.180;11.524;2023-02-28T08:01:52;14.98;;;8.55;;
64313;SDS011;50650;48.180;11.524;2023-02-28T08:04:18;14.13;;;7.85;;
64313;SDS011;50650;48.180;11.524;2023-02-28T08:06:46;13.13;;;7.38;;
64313;SDS011;50650;48.180;11.524;2023-02-28T08:09:12;12.20;;;7.57;;
64313;SDS011;50650;48.180;11.524;2023-02-28T08:11:39;16.92;;;7.15;;
64313;SDS011;50650;48.180;11.524;2023-02-28T08:14:05;16.67;;;8.13;;
64313;SDS011;50650;48.180;11.524;2023-02-28T08:16:32;14.60;;;8.20;;
64313;SDS011;50650;48.180;11.524;2023-02-28T08:19:01;14.77;;;7.63;;
64313;SDS011;50650;48.180;11.524;2023-02-28T08:21:27;15.88;;;7.80;;
64313;SDS011;50650;48.180;11.524;2023-02-28T08:23:55;11.38;;;7.22;;
64313;SDS011;50650;48.180;11.524;2023-02-28T08:26:22;11.25;;;7.10;;
64313;SDS011;50650;48.180;11.524;2023-02-28T08:28:49;16.42;;;9.07;;
64313;SDS011;50650;48.180;11.524;2023-02-28T08:31:15;13.63;;;7.35;;
64313;SDS011;50650;48.180;11.524;2023-02-28T08:33:42;11.95;;;7.30;;
64313;SDS011;50650;48.180;11.524;2023-02-28T08:36:10;17.75;;;8.57;;
64313;SDS011;50650;48.180;11.524;2023-02-28T08:38:37;12.57;;;7.10;;
64313;SDS011;50650;48.180;11.524;2023-02-28T08:41:05;14.95;;;7.75;;
64313;SDS011;50650;48.180;11.524;2023-02-28T08:43:33;12.10;;;7.80;;
64313;SDS011;50650;48.180;11.524;2023-02-28T08:46:00;12.60;;;8.27;;
64313;SDS011;50650;48.180;11.524;2023-02-28T08:48:27;15.93;;;7.97;;
64313;SDS011;50650;48.180;11.524;2023-02-28T08:50:55;16.83;;;8.50;;
64313;SDS011;50650;48.180;11.524;2023-02-28T08:53:22;16.20;;;7.65;;
64313;SDS011;50650;48.180;11.524;2023-02-28T08:55:55;15.15;;;8.43;;
64313;SDS011;50650;48.180;11.524;2023-02-28T08:58:23;12.85;;;7.78;;
64313;SDS011;50650;48.180;11.524;2023-02-28T09:00:50;13.88;;;7.75;;
64313;SDS011;50650;48.180;11.524;2023-02-28T09:03:22;14.60;;;8.18;;
64313;SDS011;50650;48.180;11.524;2023-02-28T09:05:53;11.95;;;7.35;;
64313;SDS011;50650;48.180;11.524;2023-02-28T09:08:21;19.63;;;8.70;;
64313;SDS011;50650;48.180;11.524;2023-02-28T09:10:48;11.50;;;6.72;;
64313;SDS011;50650;48.180;11.524;2023-02-28T09:13:14;14.43;;;8.60;;
64313;SDS011;50650;48.180;11.524;2023-02-28T09:15:42;16.55;;;8.18;;
64313;SDS011;50650;48.180;11.524;2023-02-28T09:18:09;12.80;;;7.43;;
64313;SDS011;50650;48.180;11.524;2023-02-28T09:20:36;14.05;;;7.82;;
64313;SDS011;50650;48.180;11.524;2023-02-28T09:23:03;13.23;;;8.05;;
64313;SDS011;50650;48.180;11.524;2023-02-28T09:25:30;13.35;;;7.93;;
64313;SDS011;50650;48.180;11.524;2023-02-28T09:27:56;14.85;;;7.97;;
64313;SDS011;50650;48.180;11.524;2023-02-28T09:30:23;11.48;;;7.05;;
64313;SDS011;50650;48.180;11.524;2023-02-28T09:32:51;12.73;;;7.28;;
64313;SDS011;50650;48.180;11.524;2023-02-28T09:35:18;15.43;;;8.35;;
64313;SDS011;50650;48.180;11.524;2023-02-28T09:37:46;16.52;;;6.97;;
64313;SDS011;50650;48.180;11.524;2023-02-28T09:40:12;14.85;;;7.97;;
64313;SDS011;50650;48.180;11.524;2023-02-28T09:42:42;14.60;;;8.32;;
64313;SDS011;50650;48.180;11.524;2023-02-28T09:45:14;16.13;;;8.65;;
64313;SDS011;50650;48.180;11.524;2023-02-28T09:47:44;13.35;;;8.55;;
64313;SDS011;50650;48.180;11.524;2023-02-28T09:50:16;17.98;;;8.70;;
64313;SDS011;50650;48.180;11.524;2023-02-28T09:52:44;15.98;;;8.27;;
64313;SDS011;50650;48.180;11.524;2023-02-28T09:55:17;21.42;;;8.52;;
64313;SDS011;50650;48.180;11.524;2023-02-28T09:57:46;19.02;;;8.57;;
64313;SDS011;50650;48.180;11.524;2023-02-28T10:00:13;15.40;;;8.95;;
64313;SDS011;50650;48.180;11.524;2023-02-28T10:02:46;16.02;;;8.45;;
64313;SDS011;50650;48.180;11.524;2023-02-28T10:05:20;14.88;;;8.07;;
64313;SDS011;50650;48.180;11.524;2023-02-28T10:07:51;13.13;;;8.10;;
64313;SDS011;50650;48.180;11.524;2023-02-28T10:10:24;16.38;;;8.63;;
64313;SDS011;50650;48.180;11.524;2023-02-28T10:12:53;20.13;;;8.20;;
64313;SDS011;50650;48.180;11.524;2023-02-28T10:15:23;16.98;;;7.93;;
64313;SDS011;50650;48.180;11.524;2023-02-28T10:17:51;12.75;;;7.82;;
64313;SDS011;50650;48.180;11.524;2023-02-28T10:20:21;21.33;;;8.63;;
64313;SDS011;50650;48.180;11.524;2023-02-28T10:22:56;11.57;;;7.32;;
64313;SDS011;50650;48.180;11.524;2023-02-28T10:25:25;15.15;;;8.43;;
64313;SDS011;50650;48.180;11.524;2023-02-28T10:27:52;20.63;;;8.25;;
64313;SDS011;50650;48.180;11.524;2023-02-28T10:30:20;12.75;;;7.70;;
64313;SDS011;50650;48.180;11.524;2023-02-28T10:32:47;15.80;;;7.90;;
64313;SDS011;50650;48.180;11.524;2023-02-28T10:35:18;17.15;;;7.30;;
64313;SDS011;50650;48.180;11.524;2023-02-28T10:37:48;12.77;;;8.00;;
64313;SDS011;50650;48.180;11.524;2023-02-28T10:40:25;15.95;;;8.55;;
64313;SDS011;50650;48.180;11.524;2023-02-28T10:42:55;15.10;;;8.15;;
64313;SDS011;50650;48.180;11.524;2023-02-28T10:45:23;11.82;;;7.35;;
64313;SDS011;50650;48.180;11.524;2023-02-28T10:47:51;15.48;;;8.27;;
64313;SDS011;50650;48.180;11.524;2023-02-28T10:50:27;11.63;;;7.35;;
64313;SDS011;50650;48.180;11.524;2023-02-28T10:52:58;15.98;;;8.13;;
64313;SDS011;50650;48.180;11.524;2023-02-28T10:55:34;11.88;;;7.50;;
64313;SDS011;50650;48.180;11.524;2023-02-28T10:58:01;15.02;;;8.68;;
64313;SDS011;50650;48.180;11.524;2023-02-28T11:00:31;13.15;;;8.23;;
64313;SDS011;50650;48.180;11.524;2023-02-28T11:02:59;19.45;;;8.73;;
64313;SDS011;50650;48.180;11.524;2023-02-28T11:05:26;19.75;;;8.93;;
64313;SDS011;50650;48.180;11.524;2023-02-28T11:07:55;15.88;;;7.88;;
64313;SDS011;50650;48.180;11.524;2023-02-28T11:10:25;12.95;;;7.95;;
64313;SDS011;50650;48.180;11.524;2023-02-28T11:12:54;14.18;;;7.65;;
64313;SDS011;50650;48.180;11.524;2023-02-28T11:15:22;14.57;;;7.30;;
64313;SDS011;50650;48.180;11.524;2023-02-28T11:17:53;13.20;;;7.93;;
64313;SDS011;50650;48.180;11.524;2023-02-28T11:20:20;10.75;;;7.22;;
64313;SDS011;50650;48.180;11.524;2023-02-28T11:22:49;14.05;;;7.38;;
64313;SDS011;50650;48.180;11.524;2023-02-28T11:25:19;12.25;;;7.25;;
64313;SDS011;50650;48.180;11.524;2023-02-28T11:27:50;18.80;;;7.78;;
64313;SDS011;50650;48.180;11.524;2023-02-28T11:30:28;11.57;;;7.57;;
64313;SDS011;50650;48.180;11.524;2023-02-28T11:32:56;14.40;;;7.85;;
64313;SDS011;50650;48.180;11.524;2023-02-28T11:35:24;12.23;;;7.93;;
64313;SDS011;50650;48.180;11.524;2023-02-28T11:37:55;14.27;;;8.15;;
64313;SDS011;50650;48.180;11.524;2023-02-28T11:40:30;12.77;;;7.57;;
64313;SDS011;50650;48.180;11.524;2023-02-28T11:43:11;11.82;;;6.57;;
64313;SDS011;50650;48.180;11.524;2023-02-28T11:45:50;14.60;;;7.45;;
64313;SDS011;50650;48.180;11.524;2023-02-28T11:48:29;15.77;;;7.55;;
64313;SDS011;50650;48.180;11.524;2023-02-28T11:51:01;12.68;;;7.60;;
64313;SDS011;50650;48.180;11.524;2023-02-28T11:53:37;13.52;;;7.05;;
64313;SDS011;50650;48.180;11.524;2023-02-28T11:56:31;13.60;;;7.88;;
64313;SDS011;50650;48.180;11.524;2023-02-28T12:01:54;14.20;;;7.20;;
64313;SDS011;50650;48.180;11.524;2023-02-28T12:04:30;10.90;;;7.15;;
64313;SDS011;50650;48.180;11.524;2023-02-28T12:07:03;14.57;;;6.90;;
64313;SDS011;50650;48.180;11.524;2023-02-28T12:09:40;16.83;;;7.10;;
64313;SDS011;50650;48.180;11.524;2023-02-28T12:12:15;13.25;;;7.70;;
64313;SDS011;50650;48.180;11.524;2023-02-28T12:15:01;11.00;;;6.95;;
64313;SDS011;50650;48.180;11.524;2023-02-28T12:17:46;11.35;;;6.63;;
64313;SDS011;50650;48.180;11.524;2023-02-28T12:20:22;10.30;;;6.35;;
64313;SDS011;50650;48.180;11.524;2023-02-28T12:22:54;13.50;;;7.45;;
64313;SDS011;50650;48.180;11.524;2023-02-28T12:25:36;11.15;;;6.53;;
64313;SDS011;50650;48.180;11.524;2023-02-28T12:30:41;11.48;;;6.30;;
64313;SDS011;50650;48.180;11.524;2023-02-28T12:33:14;10.57;;;6.18;;
64313;SDS011;50650;48.180;11.524;2023-02-28T12:35:44;16.02;;;7.72;;
64313;SDS011;50650;48.180;11.524;2023-02-28T12:38:14;13.98;;;7.60;;
64313;SDS011;50650;48.180;11.524;2023-02-28T12:40:45;10.27;;;6.30;;
64313;SDS011;50650;48.180;11.524;2023-02-28T12:43:13;10.90;;;6.43;;
64313;SDS011;50650;48.180;11.524;2023-02-28T12:45:45;10.73;;;6.45;;
64313;SDS011;50650;48.180;11.524;2023-02-28T12:48:15;16.88;;;6.47;;
64313;SDS011;50650;48.180;11.524;2023-02-28T12:50:45;9.68;;;6.60;;
64313;SDS011;50650;48.180;11.524;2023-02-28T12:53:13;13.63;;;6.53;;
64313;SDS011;50650;48.180;11.524;2023-02-28T12:55:41;11.70;;;6.55;;
64313;SDS011;50650;48.180;11.524;2023-02-28T12:58:11;10.15;;;6.60;;
64313;SDS011;50650;48.180;11.524;2023-02-28T13:00:46;13.00;;;6.68;;
64313;SDS011;50650;48.180;11.524;2023-02-28T13:03:27;15.20;;;7.07;;
64313;SDS011;50650;48.180;11.524;2023-02-28T13:06:13;9.77;;;6.47;;
64313;SDS011;50650;48.180;11.524;2023-02-28T13:08:57;9.45;;;5.90;;
64313;SDS011;50650;48.180;11.524;2023-02-28T13:11:27;9.60;;;6.45;;
64313;SDS011;50650;48.180;11.524;2023-02-28T13:13:58;9.45;;;6.20;;
64313;SDS011;50650;48.180;11.524;2023-02-28T13:16:27;9.55;;;6.25;;
64313;SDS011;50650;48.180;11.524;2023-02-28T13:19:07;14.98;;;6.35;;
64313;SDS011;50650;48.180;11.524;2023-02-28T13:21:41;10.65;;;5.97;;
64313;SDS011;50650;48.180;11.524;2023-02-28T13:24:08;12.23;;;6.63;;
64313;SDS011;50650;48.180;11.524;2023-02-28T13:29:39;9.52;;;5.88;;
64313;SDS011;50650;48.180;11.524;2023-02-28T13:35:15;9.18;;;6.25;;
64313;SDS011;50650;48.180;11.524;2023-02-28T13:44:05;8.73;;;6.35;;
64313;SDS011;50650;48.180;11.524;2023-02-28T13:46:32;10.25;;;6.25;;
64313;SDS011;50650;48.180;11.524;2023-02-28T13:49:23;12.52;;;5.45;;
64313;SDS011;50650;48.180;11.524;2023-02-28T13:51:54;14.25;;;6.70;;
64313;SDS011;50650;48.180;11.524;2023-02-28T13:54:32;8.48;;;5.82;;
64313;SDS011;50650;48.180;11.524;2023-02-28T13:57:08;17.95;;;7.00;;
64313;SDS011;50650;48.180;11.524;2023-02-28T13:59:43;16.08;;;6.40;;
64313;SDS011;50650;48.180;11.524;2023-02-28T14:02:36;12.98;;;6.15;;
64313;SDS011;50650;48.180;11.524;2023-02-28T14:05:16;13.15;;;6.75;;
64313;SDS011;50650;48.180;11.524;2023-02-28T14:07:45;10.90;;;5.82;;
64313;SDS011;50650;48.180;11.524;2023-02-28T14:10:20;14.82;;;6.45;;
64313;SDS011;50650;48.180;11.524;2023-02-28T14:12:54;10.68;;;5.75;;
64313;SDS011;50650;48.180;11.524;2023-02-28T14:15:38;11.68;;;6.55;;
64313;SDS011;50650;48.180;11.524;2023-02-28T14:18:18;9.05;;;5.97;;
64313;SDS011;50650;48.180;11.524;2023-02-28T14:20:49;8.95;;;5.65;;
64313;SDS011;50650;48.180;11.524;2023-02-28T14:23:22;8.98;;;5.88;;
64313;SDS011;50650;48.180;11.524;2023-02-28T14:26:00;9.38;;;6.18;;
64313;SDS011;50650;48.180;11.524;2023-02-28T14:28:37;9.40;;;6.18;;
64313;SDS011;50650;48.180;11.524;2023-02-28T14:31:10;10.60;;;5.95;;
64313;SDS011;50650;48.180;11.524;2023-02-28T14:33:45;10.23;;;5.70;;
64313;SDS011;50650;48.180;11.524;2023-02-28T14:36:20;12.55;;;6.68;;
64313;SDS011;50650;48.180;11.524;2023-02-28T14:38:48;12.68;;;6.15;;
64313;SDS011;50650;48.180;11.524;2023-02-28T14:41:20;10.43;;;5.93;;
64313;SDS011;50650;48.180;11.524;2023-02-28T14:43:51;11.90;;;6.20;;
64313;SDS011;50650;48.180;11.524;2023-02-28T14:46:19;9.40;;;5.70;;
64313;SDS011;50650;48.180;11.524;2023-02-28T14:48:48;10.35;;;6.30;;
64313;SDS011;50650;48.180;11.524;2023-02-28T14:51:20;15.45;;;6.10;;
64313;SDS011;50650;48.180;11.524;2023-02-28T14:53:49;8.45;;;5.53;;
64313;SDS011;50650;48.180;11.524;2023-02-28T14:56:21;10.48;;;6.32;;
64313;SDS011;50650;48.180;11.524;2023-02-28T14:58:53;10.35;;;5.75;;
64313;SDS011;50650;48.180;11.524;2023-02-28T15:01:21;11.30;;;5.57;;
64313;SDS011;50650;48.180;11.524;2023-02-28T15:03:56;10.40;;;6.47;;
64313;SDS011;50650;48.180;11.524;2023-02-28T15:09:06;10.40;;;5.57;;
64313;SDS011;50650;48.180;11.524;2023-02-28T15:11:33;13.18;;;6.38;;